sensor_id;sensor_type;location;lat;lon;timestamp;pressure;altitude;pressure_sealevel;temperature;humidity
69879;BME280;57161;43.136;24.706;2023-02-02T00:00:57;99248.41;;;5.89;55.61
69879;BME280;57161;43.136;24.706;2023-02-02T00:03:23;99254.22;;;5.91;56.38
69879;BME280;57161;43.136;24.706;2023-02-02T00:05:51;99250.19;;;5.81;57.92
69879;BME280;57161;43.136;24.706;2023-02-02T00:08:18;99251.22;;;5.78;58.06
69879;BME280;57161;43.136;24.706;2023-02-02T00:10:44;99266.59;;;5.90;58.37
69879;BME280;57161;43.136;24.706;2023-02-02T00:13:10;99263.53;;;5.88;58.34
69879;BME280;57161;43.136;24.706;2023-02-02T00:15:37;99252.72;;;5.79;58.56
69879;BME280;57161;43.136;24.706;2023-02-02T00:18:02;99268.84;;;5.91;58.35
69879;BME280;57161;43.136;24.706;2023-02-02T00:20:28;99265.31;;;5.91;58.29
69879;BME280;57161;43.136;24.706;2023-02-02T00:22:54;99278.88;;;6.00;58.42
69879;BME280;57161;43.136;24.706;2023-02-02T00:25:21;99275.34;;;5.99;58.70
69879;BME280;57161;43.136;24.706;2023-02-02T00:27:46;99282.69;;;5.97;59.10
69879;BME280;57161;43.136;24.706;2023-02-02T00:30:12;99273.63;;;5.91;59.21
69879;BME280;57161;43.136;24.706;2023-02-02T00:32:38;99262.75;;;5.98;59.13
69879;BME280;57161;43.136;24.706;2023-02-02T00:35:06;99266.78;;;5.97;59.08
69879;BME280;57161;43.136;24.706;2023-02-02T00:37:32;99258.97;;;5.96;59.33
69879;BME280;57161;43.136;24.706;2023-02-02T00:39:57;99267.78;;;6.00;59.35
69879;BME280;57161;43.136;24.706;2023-02-02T00:42:22;99268.06;;;5.96;59.61
69879;BME280;57161;43.136;24.706;2023-02-02T00:44:48;99265.06;;;5.89;59.89
69879;BME280;57161;43.136;24.706;2023-02-02T00:47:47;99251.97;;;5.78;60.41
69879;BME280;57161;43.136;24.706;2023-02-02T00:50:19;99274.16;;;5.78;61.07
69879;BME280;57161;43.136;24.706;2023-02-02T00:52:46;99257.00;;;5.80;61.58
69879;BME280;57161;43.136;24.706;2023-02-02T00:55:13;99204.25;;;5.38;62.48
69879;BME280;57161;43.136;24.706;2023-02-02T00:57:39;99251.75;;;5.65;63.18
69879;BME280;57161;43.136;24.706;2023-02-02T01:00:07;99255.53;;;5.73;63.41
69879;BME280;57161;43.136;24.706;2023-02-02T01:02:34;99248.00;;;5.62;63.78
69879;BME280;57161;43.136;24.706;2023-02-02T01:05:00;99252.28;;;5.63;64.23
69879;BME280;57161;43.136;24.706;2023-02-02T01:07:26;99261.59;;;5.60;64.41
69879;BME280;57161;43.136;24.706;2023-02-02T01:09:52;99261.34;;;5.64;64.56
69879;BME280;57161;43.136;24.706;2023-02-02T01:12:17;99228.16;;;5.41;64.97
69879;BME280;57161;43.136;24.706;2023-02-02T01:14:43;99224.38;;;5.33;65.28
69879;BME280;57161;43.136;24.706;2023-02-02T01:17:09;99229.41;;;5.35;65.56
69879;BME280;57161;43.136;24.706;2023-02-02T01:19:34;99240.25;;;5.33;65.98
69879;BME280;57161;43.136;24.706;2023-02-02T01:22:00;99235.47;;;5.33;66.09
69879;BME280;57161;43.136;24.706;2023-02-02T01:24:26;99234.44;;;5.36;66.43
69879;BME280;57161;43.136;24.706;2023-02-02T01:26:51;99227.16;;;5.33;66.40
69879;BME280;57161;43.136;24.706;2023-02-02T01:29:17;99218.38;;;5.24;66.64
69879;BME280;57161;43.136;24.706;2023-02-02T01:31:42;99239.00;;;5.28;66.49
69879;BME280;57161;43.136;24.706;2023-02-02T01:34:08;99219.16;;;5.07;66.88
69879;BME280;57161;43.136;24.706;2023-02-02T01:36:33;99230.97;;;5.25;66.58
69879;BME280;57161;43.136;24.706;2023-02-02T01:38:59;99230.22;;;5.24;66.58
69879;BME280;57161;43.136;24.706;2023-02-02T01:41:25;99222.38;;;5.28;66.51
69879;BME280;57161;43.136;24.706;2023-02-02T01:43:57;99225.66;;;5.27;66.36
69879;BME280;57161;43.136;24.706;2023-02-02T01:46:25;99225.13;;;5.34;65.59
69879;BME280;57161;43.136;24.706;2023-02-02T01:48:58;99177.38;;;5.05;64.98
69879;BME280;57161;43.136;24.706;2023-02-02T01:51:52;99229.69;;;5.31;64.91
69879;BME280;57161;43.136;24.706;2023-02-02T01:54:46;99215.06;;;5.36;64.25
69879;BME280;57161;43.136;24.706;2023-02-02T01:57:47;99211.06;;;5.26;64.44
69879;BME280;57161;43.136;24.706;2023-02-02T02:00:13;99198.97;;;5.18;64.14
69879;BME280;57161;43.136;24.706;2023-02-02T02:02:41;99203.25;;;5.25;64.30
69879;BME280;57161;43.136;24.706;2023-02-02T02:05:10;99212.53;;;5.33;63.82
69879;BME280;57161;43.136;24.706;2023-02-02T02:07:37;99212.06;;;5.29;63.61
69879;BME280;57161;43.136;24.706;2023-02-02T02:10:04;99211.06;;;5.26;64.14
69879;BME280;57161;43.136;24.706;2023-02-02T02:12:30;99205.75;;;5.28;63.69
69879;BME280;57161;43.136;24.706;2023-02-02T02:14:55;99202.00;;;5.26;63.47
69879;BME280;57161;43.136;24.706;2023-02-02T02:32:48;99203.75;;;5.18;62.79
69879;BME280;57161;43.136;24.706;2023-02-02T02:35:51;99202.00;;;5.20;62.59
69879;BME280;57161;43.136;24.706;2023-02-02T02:41:11;99216.13;;;5.22;62.68
69879;BME280;57161;43.136;24.706;2023-02-02T02:43:45;99204.03;;;5.14;62.76
69879;BME280;57161;43.136;24.706;2023-02-02T02:46:14;99208.31;;;5.04;62.74
69879;BME280;57161;43.136;24.706;2023-02-02T02:48:43;99224.16;;;5.20;62.79
69879;BME280;57161;43.136;24.706;2023-02-02T02:51:41;99216.88;;;5.23;62.45
69879;BME280;57161;43.136;24.706;2023-02-02T02:59:45;99221.13;;;5.18;62.39
69879;BME280;57161;43.136;24.706;2023-02-02T03:07:43;99208.31;;;5.21;61.80
69879;BME280;57161;43.136;24.706;2023-02-02T03:10:13;99208.56;;;5.17;61.74
69879;BME280;57161;43.136;24.706;2023-02-02T03:12:46;99207.81;;;5.22;61.33
69879;BME280;57161;43.136;24.706;2023-02-02T03:15:13;99208.03;;;5.19;61.51
69879;BME280;57161;43.136;24.706;2023-02-02T03:17:40;99214.84;;;5.23;61.17
69879;BME280;57161;43.136;24.706;2023-02-02T03:20:06;99219.38;;;5.15;61.46
69879;BME280;57161;43.136;24.706;2023-02-02T03:22:32;99217.63;;;5.23;60.85
69879;BME280;57161;43.136;24.706;2023-02-02T03:24:57;99228.94;;;5.31;60.33
69879;BME280;57161;43.136;24.706;2023-02-02T03:27:24;99211.84;;;5.21;60.43
69879;BME280;57161;43.136;24.706;2023-02-02T03:29:50;99205.03;;;5.22;60.19
69879;BME280;57161;43.136;24.706;2023-02-02T03:32:15;99205.53;;;5.15;59.99
69879;BME280;57161;43.136;24.706;2023-02-02T03:34:41;99220.88;;;5.27;59.70
69879;BME280;57161;43.136;24.706;2023-02-02T03:37:06;99219.34;;;5.32;59.54
69879;BME280;57161;43.136;24.706;2023-02-02T03:39:32;99206.03;;;5.19;59.39
69879;BME280;57161;43.136;24.706;2023-02-02T03:41:57;99220.13;;;5.27;59.56
69879;BME280;57161;43.136;24.706;2023-02-02T03:44:23;99214.34;;;5.19;59.25
69879;BME280;57161;43.136;24.706;2023-02-02T03:46:52;99213.31;;;5.33;58.94
69879;BME280;57161;43.136;24.706;2023-02-02T03:49:19;99216.31;;;5.35;58.86
69879;BME280;57161;43.136;24.706;2023-02-02T03:51:44;99214.06;;;5.28;59.15
69879;BME280;57161;43.136;24.706;2023-02-02T03:54:10;99216.06;;;5.39;58.82
69879;BME280;57161;43.136;24.706;2023-02-02T03:56:36;99201.72;;;5.35;58.57
69879;BME280;57161;43.136;24.706;2023-02-02T03:59:01;99202.75;;;5.26;58.45
69879;BME280;57161;43.136;24.706;2023-02-02T04:01:28;99208.03;;;5.30;58.53
69879;BME280;57161;43.136;24.706;2023-02-02T04:03:55;99212.03;;;5.34;58.11
69879;BME280;57161;43.136;24.706;2023-02-02T04:06:21;99229.16;;;5.44;57.87
69879;BME280;57161;43.136;24.706;2023-02-02T04:08:47;99207.75;;;5.33;57.69
69879;BME280;57161;43.136;24.706;2023-02-02T04:11:13;99187.69;;;5.10;58.02
69879;BME280;57161;43.136;24.706;2023-02-02T04:13:38;99229.19;;;5.38;57.75
69879;BME280;57161;43.136;24.706;2023-02-02T04:16:05;99222.34;;;5.45;57.22
69879;BME280;57161;43.136;24.706;2023-02-02T04:18:30;99223.13;;;5.34;57.01
69879;BME280;57161;43.136;24.706;2023-02-02T04:20:58;99213.81;;;5.37;56.44
69879;BME280;57161;43.136;24.706;2023-02-02T04:23:23;99200.19;;;5.34;56.08
69879;BME280;57161;43.136;24.706;2023-02-02T04:25:50;99234.44;;;5.53;56.22
69879;BME280;57161;43.136;24.706;2023-02-02T04:28:16;99231.38;;;5.51;56.39
69879;BME280;57161;43.136;24.706;2023-02-02T04:30:41;99221.63;;;5.39;56.47
69879;BME280;57161;43.136;24.706;2023-02-02T04:33:07;99211.78;;;5.43;56.02
69879;BME280;57161;43.136;24.706;2023-02-02T04:35:32;99230.63;;;5.51;56.06
69879;BME280;57161;43.136;24.706;2023-02-02T04:37:58;99233.09;;;5.65;55.55
69879;BME280;57161;43.136;24.706;2023-02-02T04:40:23;99233.88;;;5.66;55.39
69879;BME280;57161;43.136;24.706;2023-02-02T04:42:49;99226.56;;;5.63;55.05
69879;BME280;57161;43.136;24.706;2023-02-02T04:45:15;99237.16;;;5.70;54.41
69879;BME280;57161;43.136;24.706;2023-02-02T04:47:40;99243.19;;;5.74;54.29
69879;BME280;57161;43.136;24.706;2023-02-02T04:50:06;99244.13;;;5.82;53.95
69879;BME280;57161;43.136;24.706;2023-02-02T04:52:32;99235.88;;;5.71;53.67
69879;BME280;57161;43.136;24.706;2023-02-02T04:54:58;99221.72;;;5.80;53.03
69879;BME280;57161;43.136;24.706;2023-02-02T04:57:23;99243.13;;;5.91;53.18
69879;BME280;57161;43.136;24.706;2023-02-02T04:59:49;99257.75;;;5.91;53.13
69879;BME280;57161;43.136;24.706;2023-02-02T05:02:14;99258.47;;;5.97;52.95
69879;BME280;57161;43.136;24.706;2023-02-02T05:04:39;99255.72;;;5.92;53.30
69879;BME280;57161;43.136;24.706;2023-02-02T05:07:05;99251.19;;;5.89;53.60
69879;BME280;57161;43.136;24.706;2023-02-02T05:09:30;99256.25;;;5.90;53.52
69879;BME280;57161;43.136;24.706;2023-02-02T05:11:56;99245.63;;;5.83;53.43
69879;BME280;57161;43.136;24.706;2023-02-02T05:14:21;99236.59;;;5.77;53.24
69879;BME280;57161;43.136;24.706;2023-02-02T05:16:47;99256.72;;;5.83;52.94
69879;BME280;57161;43.136;24.706;2023-02-02T05:19:14;99249.16;;;5.89;53.08
69879;BME280;57161;43.136;24.706;2023-02-02T05:21:44;99245.72;;;5.72;53.00
69879;BME280;57161;43.136;24.706;2023-02-02T05:24:12;99255.97;;;5.88;52.74
69879;BME280;57161;43.136;24.706;2023-02-02T05:26:37;99239.69;;;5.62;53.02
69879;BME280;57161;43.136;24.706;2023-02-02T05:29:03;99252.50;;;5.71;53.47
69879;BME280;57161;43.136;24.706;2023-02-02T05:31:28;99246.47;;;5.72;53.41
69879;BME280;57161;43.136;24.706;2023-02-02T05:33:56;99242.47;;;5.57;53.58
69879;BME280;57161;43.136;24.706;2023-02-02T05:36:21;99250.00;;;5.62;53.99
69879;BME280;57161;43.136;24.706;2023-02-02T05:38:46;99258.31;;;5.67;53.46
69879;BME280;57161;43.136;24.706;2023-02-02T05:41:12;99248.53;;;5.55;53.83
69879;BME280;57161;43.136;24.706;2023-02-02T05:43:38;99260.59;;;5.63;53.55
69879;BME280;57161;43.136;24.706;2023-02-02T05:46:03;99221.59;;;5.45;53.55
69879;BME280;57161;43.136;24.706;2023-02-02T05:48:29;99257.84;;;5.58;53.42
69879;BME280;57161;43.136;24.706;2023-02-02T05:53:30;99267.91;;;5.61;53.63
69879;BME280;57161;43.136;24.706;2023-02-02T05:55:55;99261.88;;;5.57;53.78
69879;BME280;57161;43.136;24.706;2023-02-02T05:58:21;99260.88;;;5.49;53.98
69879;BME280;57161;43.136;24.706;2023-02-02T06:00:46;99271.69;;;5.58;53.43
69879;BME280;57161;43.136;24.706;2023-02-02T06:03:12;99270.44;;;5.59;52.65
69879;BME280;57161;43.136;24.706;2023-02-02T06:05:38;99282.25;;;5.65;52.59
69879;BME280;57161;43.136;24.706;2023-02-02T06:08:04;99280.47;;;5.73;52.96
69879;BME280;57161;43.136;24.706;2023-02-02T06:10:29;99274.94;;;5.73;52.10
69879;BME280;57161;43.136;24.706;2023-02-02T06:12:58;99277.16;;;5.91;51.75
69879;BME280;57161;43.136;24.706;2023-02-02T06:15:23;99276.66;;;5.87;51.52
69879;BME280;57161;43.136;24.706;2023-02-02T06:17:51;99288.72;;;6.01;51.45
69879;BME280;57161;43.136;24.706;2023-02-02T06:20:17;99294.97;;;6.13;51.14
69879;BME280;57161;43.136;24.706;2023-02-02T06:22:42;99287.13;;;6.17;50.99
69879;BME280;57161;43.136;24.706;2023-02-02T06:25:08;99287.16;;;6.11;51.41
69879;BME280;57161;43.136;24.706;2023-02-02T06:27:34;99281.81;;;6.24;51.25
69879;BME280;57161;43.136;24.706;2023-02-02T06:30:00;99296.63;;;6.32;50.98
69879;BME280;57161;43.136;24.706;2023-02-02T06:32:27;99288.59;;;6.35;51.05
69879;BME280;57161;43.136;24.706;2023-02-02T06:34:53;99279.22;;;6.32;50.90
69879;BME280;57161;43.136;24.706;2023-02-02T06:37:18;99289.06;;;6.39;50.71
69879;BME280;57161;43.136;24.706;2023-02-02T06:39:44;99286.56;;;6.35;50.55
69879;BME280;57161;43.136;24.706;2023-02-02T06:42:09;99287.28;;;6.41;50.91
69879;BME280;57161;43.136;24.706;2023-02-02T06:44:35;99279.66;;;6.47;50.23
69879;BME280;57161;43.136;24.706;2023-02-02T06:47:00;99275.13;;;6.44;50.57
69879;BME280;57161;43.136;24.706;2023-02-02T06:49:25;99283.69;;;6.46;50.59
69879;BME280;57161;43.136;24.706;2023-02-02T06:51:51;99282.94;;;6.46;51.15
69879;BME280;57161;43.136;24.706;2023-02-02T06:54:16;99262.34;;;6.30;51.00
69879;BME280;57161;43.136;24.706;2023-02-02T06:56:42;99244.00;;;6.16;50.99
69879;BME280;57161;43.136;24.706;2023-02-02T06:59:07;99255.09;;;6.21;51.37
69879;BME280;57161;43.136;24.706;2023-02-02T07:01:33;99280.97;;;6.41;51.47
69879;BME280;57161;43.136;24.706;2023-02-02T07:03:58;99254.09;;;6.19;51.77
69879;BME280;57161;43.136;24.706;2023-02-02T07:06:25;99281.00;;;6.35;51.88
69879;BME280;57161;43.136;24.706;2023-02-02T07:08:51;99286.28;;;6.33;51.81
69879;BME280;57161;43.136;24.706;2023-02-02T07:11:17;99273.44;;;6.30;51.99
69879;BME280;57161;43.136;24.706;2023-02-02T07:13:44;99282.56;;;6.25;52.34
69879;BME280;57161;43.136;24.706;2023-02-02T07:16:10;99282.31;;;6.23;52.69
69879;BME280;57161;43.136;24.706;2023-02-02T07:18:37;99289.66;;;6.20;52.61
69879;BME280;57161;43.136;24.706;2023-02-02T07:21:04;99292.94;;;6.19;52.57
69879;BME280;57161;43.136;24.706;2023-02-02T07:23:31;99219.41;;;5.84;52.45
69879;BME280;57161;43.136;24.706;2023-02-02T07:26:02;99280.53;;;6.25;52.12
69879;BME280;57161;43.136;24.706;2023-02-02T07:28:28;99283.00;;;6.40;51.33
69879;BME280;57161;43.136;24.706;2023-02-02T07:30:53;99286.13;;;6.61;50.67
69879;BME280;57161;43.136;24.706;2023-02-02T07:33:19;99290.31;;;6.79;50.74
69879;BME280;57161;43.136;24.706;2023-02-02T07:35:44;99289.19;;;6.93;50.04
69879;BME280;57161;43.136;24.706;2023-02-02T07:38:10;99293.34;;;7.11;48.81
69879;BME280;57161;43.136;24.706;2023-02-02T07:40:35;99264.34;;;7.06;48.58
69879;BME280;57161;43.136;24.706;2023-02-02T07:43:00;99304.41;;;7.46;47.91
69879;BME280;57161;43.136;24.706;2023-02-02T07:45:26;99293.41;;;7.60;47.60
69879;BME280;57161;43.136;24.706;2023-02-02T07:47:56;99312.31;;;7.67;47.70
69879;BME280;57161;43.136;24.706;2023-02-02T07:50:22;99289.00;;;7.70;47.51
69879;BME280;57161;43.136;24.706;2023-02-02T07:52:48;99288.38;;;7.82;46.98
69879;BME280;57161;43.136;24.706;2023-02-02T07:55:13;99297.63;;;7.91;47.31
69879;BME280;57161;43.136;24.706;2023-02-02T07:57:39;99285.63;;;8.01;46.53
69879;BME280;57161;43.136;24.706;2023-02-02T08:00:04;99300.81;;;8.19;45.85
69879;BME280;57161;43.136;24.706;2023-02-02T08:02:30;99293.91;;;8.26;45.53
69879;BME280;57161;43.136;24.706;2023-02-02T08:04:55;99288.97;;;8.37;44.82
69879;BME280;57161;43.136;24.706;2023-02-02T08:07:21;99286.28;;;8.51;44.61
69879;BME280;57161;43.136;24.706;2023-02-02T08:09:49;99287.25;;;8.53;45.11
69879;BME280;57161;43.136;24.706;2023-02-02T08:12:14;99285.88;;;8.60;43.98
69879;BME280;57161;43.136;24.706;2023-02-02T08:14:40;99288.22;;;8.56;43.54
69879;BME280;57161;43.136;24.706;2023-02-02T08:17:05;99280.47;;;8.49;43.75
69879;BME280;57161;43.136;24.706;2023-02-02T08:19:31;99265.44;;;8.38;44.00
69879;BME280;57161;43.136;24.706;2023-02-02T08:21:57;99281.81;;;8.61;43.65
69879;BME280;57161;43.136;24.706;2023-02-02T08:24:22;99280.16;;;8.71;43.37
69879;BME280;57161;43.136;24.706;2023-02-02T08:26:48;99274.75;;;8.92;42.82
69879;BME280;57161;43.136;24.706;2023-02-02T08:29:13;99269.44;;;9.07;42.95
69879;BME280;57161;43.136;24.706;2023-02-02T08:31:42;99267.34;;;9.26;42.33
69879;BME280;57161;43.136;24.706;2023-02-02T08:34:09;99258.16;;;9.45;41.96
69879;BME280;57161;43.136;24.706;2023-02-02T08:36:36;99261.06;;;9.66;41.70
69879;BME280;57161;43.136;24.706;2023-02-02T08:39:04;99255.56;;;9.86;40.87
69879;BME280;57161;43.136;24.706;2023-02-02T08:41:30;99241.94;;;9.96;40.56
69879;BME280;57161;43.136;24.706;2023-02-02T08:43:57;99239.75;;;10.15;40.11
69879;BME280;57161;43.136;24.706;2023-02-02T08:46:23;99237.25;;;10.38;40.26
69879;BME280;57161;43.136;24.706;2023-02-02T08:48:48;99234.16;;;10.42;39.30
69879;BME280;57161;43.136;24.706;2023-02-02T08:51:16;99236.66;;;10.53;38.54
69879;BME280;57161;43.136;24.706;2023-02-02T08:53:43;99242.47;;;10.55;38.63
69879;BME280;57161;43.136;24.706;2023-02-02T08:56:16;99236.06;;;10.68;38.67
69879;BME280;57161;43.136;24.706;2023-02-02T08:58:53;99238.31;;;10.69;38.90
69879;BME280;57161;43.136;24.706;2023-02-02T09:03:46;99230.94;;;10.25;38.30
69879;BME280;57161;43.136;24.706;2023-02-02T09:06:16;99246.31;;;10.05;39.15
69879;BME280;57161;43.136;24.706;2023-02-02T09:08:43;99247.00;;;9.98;38.73
69879;BME280;57161;43.136;24.706;2023-02-02T09:11:14;99240.88;;;9.86;39.14
69879;BME280;57161;43.136;24.706;2023-02-02T09:13:41;99233.91;;;9.92;38.88
69879;BME280;57161;43.136;24.706;2023-02-02T09:16:12;99241.06;;;10.01;38.99
69879;BME280;57161;43.136;24.706;2023-02-02T09:18:38;99221.09;;;10.10;38.62
69879;BME280;57161;43.136;24.706;2023-02-02T09:21:06;99231.38;;;10.29;38.94
69879;BME280;57161;43.136;24.706;2023-02-02T09:23:34;99240.22;;;10.53;38.42
69879;BME280;57161;43.136;24.706;2023-02-02T09:26:09;99230.03;;;10.77;38.32
69879;BME280;57161;43.136;24.706;2023-02-02T09:28:37;99218.66;;;10.75;37.55
69879;BME280;57161;43.136;24.706;2023-02-02T09:31:03;99216.09;;;10.85;36.92
69879;BME280;57161;43.136;24.706;2023-02-02T09:33:28;99208.88;;;10.68;36.88
69879;BME280;57161;43.136;24.706;2023-02-02T09:35:54;99214.41;;;10.81;36.93
69879;BME280;57161;43.136;24.706;2023-02-02T09:38:19;99210.13;;;10.80;36.37
69879;BME280;57161;43.136;24.706;2023-02-02T09:40:45;99206.16;;;10.76;36.87
69879;BME280;57161;43.136;24.706;2023-02-02T09:43:23;99201.72;;;10.80;36.72
69879;BME280;57161;43.136;24.706;2023-02-02T09:48:45;99188.56;;;10.68;35.67
69879;BME280;57161;43.136;24.706;2023-02-02T09:51:17;99191.31;;;10.60;35.77
69879;BME280;57161;43.136;24.706;2023-02-02T09:53:52;99181.63;;;10.61;35.80
69879;BME280;57161;43.136;24.706;2023-02-02T09:56:24;99171.47;;;10.71;36.20
69879;BME280;57161;43.136;24.706;2023-02-02T09:58:56;99171.59;;;10.66;36.29
69879;BME280;57161;43.136;24.706;2023-02-02T10:01:33;99163.03;;;10.64;36.39
69879;BME280;57161;43.136;24.706;2023-02-02T10:04:25;99167.66;;;10.82;36.70
69879;BME280;57161;43.136;24.706;2023-02-02T10:06:57;99155.00;;;11.09;35.85
69879;BME280;57161;43.136;24.706;2023-02-02T10:15:03;99142.25;;;11.01;36.31
69879;BME280;57161;43.136;24.706;2023-02-02T10:17:45;99143.09;;;10.88;36.69
69879;BME280;57161;43.136;24.706;2023-02-02T10:22:43;99133.66;;;10.99;35.76
69879;BME280;57161;43.136;24.706;2023-02-02T10:25:14;99147.19;;;11.16;36.59
69879;BME280;57161;43.136;24.706;2023-02-02T10:28:05;99149.44;;;11.17;35.69
69879;BME280;57161;43.136;24.706;2023-02-02T10:30:39;99143.63;;;11.07;35.60
69879;BME280;57161;43.136;24.706;2023-02-02T10:33:20;99132.75;;;10.75;36.03
69879;BME280;57161;43.136;24.706;2023-02-02T10:36:02;99138.16;;;11.02;35.69
69879;BME280;57161;43.136;24.706;2023-02-02T10:38:53;99130.97;;;11.14;35.57
69879;BME280;57161;43.136;24.706;2023-02-02T10:41:31;99120.66;;;11.37;35.63
69879;BME280;57161;43.136;24.706;2023-02-02T10:44:20;99125.75;;;11.47;36.06
69879;BME280;57161;43.136;24.706;2023-02-02T10:46:52;99113.00;;;11.38;35.29
69879;BME280;57161;43.136;24.706;2023-02-02T10:49:34;99117.84;;;11.37;35.55
69879;BME280;57161;43.136;24.706;2023-02-02T11:02:48;99081.50;;;11.01;36.63
69879;BME280;57161;43.136;24.706;2023-02-02T11:05:26;99078.97;;;11.11;36.61
69879;BME280;57161;43.136;24.706;2023-02-02T11:08:33;99080.91;;;11.31;37.13
69879;BME280;57161;43.136;24.706;2023-02-02T11:11:18;99068.69;;;11.50;36.61
69879;BME280;57161;43.136;24.706;2023-02-02T11:16:22;99059.97;;;11.68;36.79
69879;BME280;57161;43.136;24.706;2023-02-02T11:18:48;99036.72;;;11.81;36.46
69879;BME280;57161;43.136;24.706;2023-02-02T11:21:50;99052.06;;;12.03;35.97
69879;BME280;57161;43.136;24.706;2023-02-02T11:24:21;99051.84;;;11.86;36.23
69879;BME280;57161;43.136;24.706;2023-02-02T11:27:12;99042.63;;;11.70;36.63
69879;BME280;57161;43.136;24.706;2023-02-02T11:37:32;99048.16;;;11.39;37.60
69879;BME280;57161;43.136;24.706;2023-02-02T11:40:28;99048.47;;;11.36;37.40
69879;BME280;57161;43.136;24.706;2023-02-02T11:42:55;99060.56;;;11.23;37.70
69879;BME280;57161;43.136;24.706;2023-02-02T11:45:38;99085.84;;;10.81;40.73
69879;BME280;57161;43.136;24.706;2023-02-02T11:50:32;99102.44;;;9.09;49.03
69879;BME280;57161;43.136;24.706;2023-02-02T11:52:59;99129.50;;;8.05;56.23
69879;BME280;57161;43.136;24.706;2023-02-02T11:55:27;99160.06;;;7.05;64.82
69879;BME280;57161;43.136;24.706;2023-02-02T11:58:23;99184.00;;;6.48;69.66
69879;BME280;57161;43.136;24.706;2023-02-02T12:00:52;99195.03;;;5.77;75.34
69879;BME280;57161;43.136;24.706;2023-02-02T12:03:37;99198.50;;;5.03;80.11
69879;BME280;57161;43.136;24.706;2023-02-02T12:06:23;99232.00;;;4.82;82.75
69879;BME280;57161;43.136;24.706;2023-02-02T12:08:49;99194.00;;;4.77;83.87
69879;BME280;57161;43.136;24.706;2023-02-02T12:35:47;99206.09;;;6.35;80.61
69879;BME280;57161;43.136;24.706;2023-02-02T12:40:45;99206.66;;;6.58;80.16
69879;BME280;57161;43.136;24.706;2023-02-02T12:43:27;99198.53;;;6.30;79.35
69879;BME280;57161;43.136;24.706;2023-02-02T13:07:41;99251.13;;;4.92;82.22
69879;BME280;57161;43.136;24.706;2023-02-02T13:10:17;99251.66;;;4.90;82.60
69879;BME280;57161;43.136;24.706;2023-02-02T13:15:41;99258.69;;;4.80;82.24
69879;BME280;57161;43.136;24.706;2023-02-02T13:18:28;99264.72;;;4.90;83.97
69879;BME280;57161;43.136;24.706;2023-02-02T13:21:00;99279.34;;;4.90;82.47
69879;BME280;57161;43.136;24.706;2023-02-02T13:23:31;99246.09;;;4.73;81.88
69879;BME280;57161;43.136;24.706;2023-02-02T13:26:05;99269.75;;;4.69;82.01
69879;BME280;57161;43.136;24.706;2023-02-02T13:28:39;99266.47;;;4.70;82.29
69879;BME280;57161;43.136;24.706;2023-02-02T13:31:14;99266.72;;;4.56;83.40
69879;BME280;57161;43.136;24.706;2023-02-02T13:33:42;99286.56;;;4.54;82.98
69879;BME280;57161;43.136;24.706;2023-02-02T13:36:17;99302.41;;;4.53;83.29
69879;BME280;57161;43.136;24.706;2023-02-02T13:38:53;99293.09;;;4.40;82.68
69879;BME280;57161;43.136;24.706;2023-02-02T13:41:20;99290.78;;;4.27;82.86
69879;BME280;57161;43.136;24.706;2023-02-02T13:48:58;99294.56;;;4.30;84.45
69879;BME280;57161;43.136;24.706;2023-02-02T13:51:40;99306.88;;;4.29;83.65
69879;BME280;57161;43.136;24.706;2023-02-02T13:57:03;99300.59;;;4.28;83.80
69879;BME280;57161;43.136;24.706;2023-02-02T14:04:56;99308.34;;;4.13;83.31
69879;BME280;57161;43.136;24.706;2023-02-02T14:07:43;99335.75;;;4.16;84.46
69879;BME280;57161;43.136;24.706;2023-02-02T14:10:25;99317.34;;;4.02;82.93
69879;BME280;57161;43.136;24.706;2023-02-02T14:12:51;99321.84;;;3.94;82.32
69879;BME280;57161;43.136;24.706;2023-02-02T14:15:18;99312.22;;;3.78;83.46
69879;BME280;57161;43.136;24.706;2023-02-02T14:17:49;99298.13;;;3.76;84.44
69879;BME280;57161;43.136;24.706;2023-02-02T14:20:42;99274.78;;;3.77;84.52
69879;BME280;57161;43.136;24.706;2023-02-02T14:26:11;99250.22;;;3.90;84.28
69879;BME280;57161;43.136;24.706;2023-02-02T14:28:46;99218.25;;;3.78;83.47
69879;BME280;57161;43.136;24.706;2023-02-02T14:31:41;99233.63;;;3.96;83.36
69879;BME280;57161;43.136;24.706;2023-02-02T14:34:19;99212.28;;;3.97;82.53
69879;BME280;57161;43.136;24.706;2023-02-02T14:37:01;99207.69;;;3.77;83.34
69879;BME280;57161;43.136;24.706;2023-02-02T14:39:38;99245.66;;;3.87;82.82
69879;BME280;57161;43.136;24.706;2023-02-02T14:45:38;99229.81;;;3.82;82.87
69879;BME280;57161;43.136;24.706;2023-02-02T14:58:24;99248.91;;;3.80;82.54
69879;BME280;57161;43.136;24.706;2023-02-02T15:01:37;99246.63;;;3.79;82.50
69879;BME280;57161;43.136;24.706;2023-02-02T15:06:38;99267.00;;;3.87;82.61
69879;BME280;57161;43.136;24.706;2023-02-02T15:09:33;99261.47;;;3.87;82.72
69879;BME280;57161;43.136;24.706;2023-02-02T15:15:06;99274.28;;;3.84;83.11
69879;BME280;57161;43.136;24.706;2023-02-02T15:26:14;99250.66;;;3.83;82.56
69879;BME280;57161;43.136;24.706;2023-02-02T15:30:56;99259.91;;;3.69;82.93
69879;BME280;57161;43.136;24.706;2023-02-02T15:33:42;99278.31;;;3.89;82.41
69879;BME280;57161;43.136;24.706;2023-02-02T15:36:22;99270.56;;;3.93;83.07
69879;BME280;57161;43.136;24.706;2023-02-02T15:38:52;99273.84;;;3.91;82.81
69879;BME280;57161;43.136;24.706;2023-02-02T15:41:24;99292.94;;;3.95;82.69
69879;BME280;57161;43.136;24.706;2023-02-02T15:43:50;99279.38;;;3.91;82.06
69879;BME280;57161;43.136;24.706;2023-02-02T15:46:20;99288.13;;;3.90;81.86
69879;BME280;57161;43.136;24.706;2023-02-02T15:51:51;99306.25;;;3.97;83.28
69879;BME280;57161;43.136;24.706;2023-02-02T15:54:38;99312.59;;;4.08;82.24
69879;BME280;57161;43.136;24.706;2023-02-02T15:57:33;99309.84;;;4.14;82.00
69879;BME280;57161;43.136;24.706;2023-02-02T16:00:20;99292.97;;;4.06;81.25
69879;BME280;57161;43.136;24.706;2023-02-02T16:02:50;99298.03;;;4.13;80.52